Time;durP1;ratioP1;P1;durP2;ratioP2;P2;SDS_P1;SDS_P2;PMS_P1;PMS_P2;Temp;Humidity;BMP_temperature;BMP_pressure;BME280_temperature;BME280_humidity;BME280_pressure;Samples;Min_cycle;Max_cycle;Signal;HPM_P1;HPM_P2
2023/06/27 00:00:12;;;;;;;6.75;1.90;;;16.10;64.30;;;;;;5009589;28;20508;-75
2023/06/27 00:02:40;;;;;;;7.45;1.92;;;16.10;64.40;;;;;;5009788;28;20200;-75
2023/06/27 00:05:10;;;;;;;4.27;1.60;;;16.10;64.50;;;;;;5009810;28;20050;-75
2023/06/27 00:07:38;;;;;;;7.25;1.77;;;16.10;64.50;;;;;;5010074;28;20364;-75
2023/06/27 00:10:05;;;;;;;4.95;1.75;;;16.10;64.30;;;;;;5009420;28;20046;-75
2023/06/27 00:12:32;;;;;;;6.32;1.95;;;16.10;64.40;;;;;;4990293;28;20133;-75
2023/06/27 00:14:59;;;;;;;6.68;2.00;;;16.10;64.50;;;;;;4991422;28;20652;-75
2023/06/27 00:17:26;;;;;;;3.93;1.80;;;16.10;64.50;;;;;;5010479;28;20088;-75
2023/06/27 00:19:57;;;;;;;8.05;2.00;;;16.10;64.30;;;;;;5020004;28;20138;-75
2023/06/27 00:22:26;;;;;;;6.40;2.15;;;16.10;64.50;;;;;;5012430;28;20759;-75
2023/06/27 00:24:54;;;;;;;5.65;2.15;;;16.10;64.50;;;;;;5013318;28;20078;-75
2023/06/27 00:27:21;;;;;;;7.13;1.90;;;16.10;64.50;;;;;;5004100;28;20054;-75
2023/06/27 00:29:48;;;;;;;5.07;1.80;;;16.00;64.60;;;;;;5004460;28;20133;-75
2023/06/27 00:32:15;;;;;;;4.75;2.20;;;16.00;64.60;;;;;;5009127;28;20129;-75
2023/06/27 00:34:42;;;;;;;5.07;1.95;;;16.00;64.70;;;;;;5013869;28;21124;-75
2023/06/27 00:37:09;;;;;;;5.45;2.15;;;16.00;64.70;;;;;;4992621;28;20039;-75
2023/06/27 00:39:41;;;;;;;4.35;2.15;;;15.90;64.80;;;;;;5011317;28;20058;-75
2023/06/27 00:42:08;;;;;;;4.67;2.03;;;15.90;64.90;;;;;;5011944;28;20050;-75
2023/06/27 00:44:37;;;;;;;5.47;2.20;;;15.80;64.80;;;;;;5005447;28;20050;-75
2023/06/27 00:47:06;;;;;;;6.18;2.45;;;15.80;65.00;;;;;;4994530;28;20064;-75
2023/06/27 00:49:34;;;;;;;4.45;2.00;;;15.80;65.10;;;;;;5010960;28;20046;-75
2023/06/27 00:52:02;;;;;;;5.53;2.22;;;15.70;65.20;;;;;;5005626;28;20635;-75
2023/06/27 00:54:29;;;;;;;5.03;2.20;;;15.60;65.30;;;;;;4991155;28;20050;-75
2023/06/27 00:56:58;;;;;;;6.03;2.22;;;15.60;65.40;;;;;;4991426;28;20395;-76
2023/06/27 00:59:26;;;;;;;5.18;1.98;;;15.60;65.50;;;;;;5014840;28;20057;-75
2023/06/27 01:01:53;;;;;;;4.63;2.08;;;15.60;65.50;;;;;;4991413;28;20200;-75
2023/06/27 01:04:20;;;;;;;6.18;2.10;;;15.50;65.60;;;;;;5008878;28;20047;-75
2023/06/27 01:06:56;;;;;;;5.20;2.23;;;15.50;65.70;;;;;;4989356;28;20564;-75
2023/06/27 01:09:29;;;;;;;5.65;2.25;;;15.50;65.90;;;;;;5003282;28;20054;-75
2023/06/27 01:12:04;;;;;;;5.95;2.30;;;15.40;66.00;;;;;;5010270;28;20081;-75
2023/06/27 01:14:34;;;;;;;4.85;2.28;;;15.40;66.00;;;;;;5009058;28;20055;-74
2023/06/27 01:17:03;;;;;;;5.78;2.30;;;15.40;66.10;;;;;;4989200;28;20062;-75
2023/06/27 01:19:31;;;;;;;7.47;2.70;;;15.30;66.20;;;;;;4989289;28;20626;-75
2023/06/27 01:22:03;;;;;;;6.20;2.42;;;15.30;66.30;;;;;;4992297;28;20145;-75
2023/06/27 01:24:32;;;;;;;6.75;2.40;;;15.30;66.40;;;;;;5008527;28;20442;-75
2023/06/27 01:27:01;;;;;;;5.57;2.40;;;15.20;66.50;;;;;;4989197;28;20164;-75
2023/06/27 01:29:30;;;;;;;6.68;2.47;;;15.20;66.50;;;;;;4990585;28;20054;-75
2023/06/27 01:32:05;;;;;;;5.43;2.50;;;15.20;66.60;;;;;;5004214;28;20054;-75
2023/06/27 01:34:34;;;;;;;5.63;2.53;;;15.10;66.80;;;;;;5009914;28;20138;-75
2023/06/27 01:37:08;;;;;;;5.53;2.33;;;15.00;66.80;;;;;;4988173;28;20117;-75
2023/06/27 01:39:41;;;;;;;6.25;2.47;;;15.00;66.90;;;;;;4988938;28;20130;-75
2023/06/27 01:42:18;;;;;;;7.00;2.40;;;15.00;67.00;;;;;;4972599;28;20078;-75
2023/06/27 01:44:46;;;;;;;6.63;2.50;;;15.00;67.00;;;;;;5025004;28;20082;-75
2023/06/27 01:47:16;;;;;;;6.18;2.50;;;15.00;67.10;;;;;;4992191;28;20054;-74
2023/06/27 01:49:44;;;;;;;7.28;2.70;;;15.00;67.20;;;;;;5008677;28;20148;-75
2023/06/27 01:52:12;;;;;;;6.40;2.60;;;14.90;67.30;;;;;;4989396;28;20613;-75
2023/06/27 01:54:42;;;;;;;7.57;2.40;;;14.90;67.40;;;;;;5008462;28;20563;-75
2023/06/27 01:57:10;;;;;;;6.77;2.43;;;14.90;67.60;;;;;;4988671;28;20051;-76
2023/06/27 01:59:37;;;;;;;5.85;2.60;;;14.90;67.70;;;;;;4988575;28;20055;-76
2023/06/27 02:02:06;;;;;;;8.35;2.67;;;14.80;67.80;;;;;;4990611;28;20602;-75
2023/06/27 02:04:34;;;;;;;6.82;2.78;;;14.80;67.90;;;;;;5008233;28;20061;-75
2023/06/27 02:07:00;;;;;;;5.78;2.47;;;14.80;68.10;;;;;;4991694;28;20050;-75
2023/06/27 02:09:27;;;;;;;5.73;2.50;;;14.70;68.10;;;;;;5006788;28;20119;-76
2023/06/27 02:11:56;;;;;;;6.15;2.85;;;14.70;68.20;;;;;;5007213;28;20046;-75
2023/06/27 02:14:23;;;;;;;5.40;2.70;;;14.70;68.40;;;;;;4991718;28;20057;-75
2023/06/27 02:16:50;;;;;;;6.90;2.90;;;14.70;68.50;;;;;;5007578;28;20050;-75
2023/06/27 02:19:18;;;;;;;7.55;3.30;;;14.70;68.60;;;;;;5007634;28;20046;-75
2023/06/27 02:21:49;;;;;;;8.83;3.00;;;14.60;68.70;;;;;;5007444;28;20522;-75
2023/06/27 02:24:16;;;;;;;6.25;3.00;;;14.60;68.90;;;;;;4991864;28;20454;-75
2023/06/27 02:26:45;;;;;;;6.47;3.15;;;14.60;69.00;;;;;;5009240;28;20065;-75
2023/06/27 02:29:13;;;;;;;7.20;3.05;;;14.50;68.90;;;;;;5003322;28;20067;-75
2023/06/27 02:31:40;;;;;;;6.53;3.50;;;14.60;69.00;;;;;;4971357;28;20566;-75
2023/06/27 02:34:07;;;;;;;8.10;3.50;;;14.60;69.00;;;;;;5008031;28;20148;-75
2023/06/27 02:36:34;;;;;;;6.75;3.50;;;14.60;69.20;;;;;;4988124;28;20050;-75
2023/06/27 02:39:01;;;;;;;6.63;3.15;;;14.60;69.40;;;;;;5005667;28;20068;-75
2023/06/27 02:41:29;;;;;;;7.53;3.53;;;14.60;69.60;;;;;;5007399;28;20054;-75
2023/06/27 02:43:56;;;;;;;7.47;3.72;;;14.50;69.60;;;;;;4991218;28;20047;-76
2023/06/27 02:46:24;;;;;;;7.90;3.47;;;14.50;69.80;;;;;;4986792;28;20051;-76
2023/06/27 02:48:51;;;;;;;8.05;3.40;;;14.50;70.00;;;;;;4987089;28;20058;-75
2023/06/27 02:51:18;;;;;;;7.97;3.65;;;14.50;70.30;;;;;;4990589;28;20058;-75
2023/06/27 02:53:44;;;;;;;8.23;3.83;;;14.50;70.40;;;;;;4987566;28;20103;-76
2023/06/27 02:56:12;;;;;;;9.80;4.18;;;14.50;70.60;;;;;;4971501;28;20505;-75
2023/06/27 02:58:39;;;;;;;9.20;3.90;;;14.50;70.70;;;;;;4984841;28;20117;-75
2023/06/27 03:01:06;;;;;;;8.05;3.78;;;14.50;70.80;;;;;;4990363;28;20188;-76
2023/06/27 03:03:38;;;;;;;7.15;4.10;;;14.50;71.00;;;;;;5005733;28;20132;-76
2023/06/27 03:06:08;;;;;;;8.63;4.07;;;14.50;71.10;;;;;;4991295;28;20062;-75
2023/06/27 03:08:37;;;;;;;7.53;3.95;;;14.40;71.10;;;;;;4990308;28;20511;-75
2023/06/27 03:11:04;;;;;;;9.20;3.63;;;14.40;71.20;;;;;;4990529;28;20078;-76
2023/06/27 03:13:32;;;;;;;9.63;3.60;;;14.40;71.40;;;;;;4987249;28;20054;-76
2023/06/27 03:16:00;;;;;;;9.18;4.00;;;14.40;71.50;;;;;;4970770;28;20054;-75
2023/06/27 03:18:28;;;;;;;7.10;3.70;;;14.40;71.50;;;;;;4984649;28;20050;-75
2023/06/27 03:20:58;;;;;;;7.93;3.60;;;14.30;71.70;;;;;;5005919;28;20054;-76
2023/06/27 03:23:25;;;;;;;8.53;4.03;;;14.30;71.90;;;;;;5007015;28;20124;-76
2023/06/27 03:25:53;;;;;;;9.00;3.88;;;14.30;72.00;;;;;;5006919;28;20051;-76
2023/06/27 03:28:21;;;;;;;7.75;3.70;;;14.30;72.10;;;;;;4987086;28;20062;-75
2023/06/27 03:30:53;;;;;;;8.10;4.28;;;14.30;72.40;;;;;;4987252;28;20061;-76
2023/06/27 03:33:20;;;;;;;9.15;3.78;;;14.30;72.30;;;;;;4982794;28;20047;-76
2023/06/27 03:35:50;;;;;;;8.07;3.57;;;14.30;72.40;;;;;;5007113;28;20093;-75
2023/06/27 03:38:19;;;;;;;7.28;3.70;;;14.30;72.60;;;;;;5002780;28;20053;-76
2023/06/27 03:40:46;;;;;;;8.23;3.65;;;14.30;72.70;;;;;;4988524;28;20055;-75
2023/06/27 03:43:14;;;;;;;9.25;4.10;;;14.30;72.90;;;;;;5000207;28;20137;-75
2023/06/27 03:45:41;;;;;;;8.13;4.03;;;14.30;72.80;;;;;;4990327;28;20541;-76
2023/06/27 03:48:08;;;;;;;7.37;4.00;;;14.30;72.70;;;;;;4986814;28;20050;-76
2023/06/27 03:50:37;;;;;;;10.27;3.70;;;14.30;72.80;;;;;;4970764;28;20125;-75
2023/06/27 03:53:06;;;;;;;6.20;3.60;;;14.30;72.80;;;;;;4998611;28;20050;-75
2023/06/27 03:55:34;;;;;;;7.35;3.53;;;14.30;72.90;;;;;;5002445;28;20225;-76
2023/06/27 03:58:02;;;;;;;8.23;3.67;;;14.30;72.50;;;;;;4980982;28;20532;-73
2023/06/27 04:00:29;;;;;;;7.60;3.70;;;14.30;72.40;;;;;;5009863;28;20055;-74
2023/06/27 04:02:56;;;;;;;8.30;4.00;;;14.30;72.50;;;;;;4999733;28;20065;-74
2023/06/27 04:05:23;;;;;;;9.30;4.10;;;14.40;72.90;;;;;;5004966;28;20542;-74
2023/06/27 04:07:51;;;;;;;7.85;4.10;;;14.40;73.10;;;;;;4987047;28;20288;-74
2023/06/27 04:10:19;;;;;;;8.95;4.10;;;14.40;73.20;;;;;;4985680;28;20043;-74
2023/06/27 04:12:47;;;;;;;9.07;3.80;;;14.40;73.30;;;;;;4985546;28;20059;-74
2023/06/27 04:15:14;;;;;;;8.32;4.25;;;14.40;73.50;;;;;;4988500;28;20479;-74
2023/06/27 04:17:41;;;;;;;9.95;4.20;;;14.50;73.70;;;;;;5001770;28;20051;-74
2023/06/27 04:20:10;;;;;;;8.80;4.50;;;14.50;73.80;;;;;;4982202;28;20061;-74
2023/06/27 04:22:37;;;;;;;8.30;3.63;;;14.50;74.00;;;;;;5024779;28;20049;-74
2023/06/27 04:25:08;;;;;;;10.03;4.53;;;14.50;74.20;;;;;;4996478;28;20052;-74
2023/06/27 04:27:35;;;;;;;10.60;4.30;;;14.50;74.30;;;;;;4984599;28;20136;-74
2023/06/27 04:30:03;;;;;;;11.18;4.63;;;14.60;74.40;;;;;;4990187;28;20059;-74
2023/06/27 04:32:33;;;;;;;8.10;4.55;;;14.60;74.70;;;;;;5008702;28;20596;-74
2023/06/27 04:35:00;;;;;;;10.70;4.68;;;14.70;74.70;;;;;;5001385;28;20070;-74
2023/06/27 04:37:29;;;;;;;9.90;4.73;;;14.70;74.90;;;;;;5000681;28;20420;-74
2023/06/27 04:39:55;;;;;;;9.27;4.82;;;14.70;75.00;;;;;;5000673;28;20050;-74
2023/06/27 04:42:22;;;;;;;9.98;4.32;;;14.80;75.50;;;;;;5006799;28;20065;-74
2023/06/27 04:44:49;;;;;;;10.23;4.55;;;14.80;75.60;;;;;;5002273;28;20060;-74
2023/06/27 04:47:18;;;;;;;8.90;4.13;;;14.90;76.00;;;;;;4991363;28;20074;-74
2023/06/27 04:49:45;;;;;;;8.93;4.40;;;14.90;76.20;;;;;;5008893;28;20046;-74
2023/06/27 04:52:11;;;;;;;9.00;4.50;;;14.90;76.10;;;;;;5009981;28;20097;-74
2023/06/27 04:54:38;;;;;;;9.45;4.18;;;15.00;76.20;;;;;;5008832;28;20042;-74
2023/06/27 04:57:06;;;;;;;10.38;4.75;;;15.00;76.20;;;;;;5010442;28;20513;-74
2023/06/27 04:59:33;;;;;;;11.15;4.82;;;15.00;76.20;;;;;;5010329;28;20054;-74
2023/06/27 05:02:00;;;;;;;9.90;3.90;;;15.00;76.40;;;;;;4999134;28;20606;-74
2023/06/27 05:04:28;;;;;;;11.60;4.90;;;15.10;76.60;;;;;;5015320;28;20143;-74
2023/06/27 05:06:55;;;;;;;9.23;4.20;;;15.20;76.80;;;;;;5009296;28;20049;-74
2023/06/27 05:09:22;;;;;;;9.30;4.50;;;15.20;77.20;;;;;;5008784;28;20050;-74
2023/06/27 05:11:49;;;;;;;9.77;4.03;;;15.30;77.30;;;;;;5011910;28;20149;-75
2023/06/27 05:14:16;;;;;;;11.30;3.90;;;15.30;77.50;;;;;;5011280;28;20050;-74
2023/06/27 05:16:43;;;;;;;8.25;4.00;;;15.30;77.90;;;;;;5019994;28;20538;-74
2023/06/27 05:19:10;;;;;;;8.88;3.92;;;15.40;77.70;;;;;;5011041;28;20054;-74
2023/06/27 05:21:38;;;;;;;9.18;3.80;;;15.40;77.70;;;;;;5002774;28;20448;-75
2023/06/27 05:24:06;;;;;;;12.35;3.90;;;15.50;77.60;;;;;;5001423;28;20487;-75
2023/06/27 05:26:33;;;;;;;8.10;3.63;;;15.50;77.70;;;;;;5001107;28;20081;-75
2023/06/27 05:29:00;;;;;;;10.85;3.80;;;15.60;77.70;;;;;;4999525;28;20527;-74
2023/06/27 05:31:28;;;;;;;7.60;3.17;;;15.60;78.00;;;;;;5003623;28;20063;-74
2023/06/27 05:33:55;;;;;;;8.88;2.90;;;15.70;78.00;;;;;;4993773;28;20082;-74
2023/06/27 05:36:22;;;;;;;9.05;3.40;;;15.80;77.70;;;;;;4994964;28;20057;-75
2023/06/27 05:38:50;;;;;;;6.80;2.77;;;15.80;77.80;;;;;;4997188;28;20076;-75
2023/06/27 05:41:18;;;;;;;8.63;3.67;;;15.80;77.60;;;;;;5004861;28;20047;-75
2023/06/27 05:43:45;;;;;;;9.10;3.60;;;15.90;77.30;;;;;;4997853;28;20055;-75
2023/06/27 05:46:12;;;;;;;8.77;3.38;;;16.00;77.00;;;;;;5000151;28;20133;-75
2023/06/27 05:48:39;;;;;;;8.35;3.60;;;16.00;77.30;;;;;;4996418;28;20134;-75
2023/06/27 05:51:06;;;;;;;7.30;2.87;;;16.10;77.10;;;;;;4994074;28;20050;-75
2023/06/27 05:53:33;;;;;;;8.55;2.72;;;16.20;77.30;;;;;;4993933;28;20105;-75
2023/06/27 05:56:01;;;;;;;7.88;2.90;;;16.20;76.90;;;;;;4992822;28;20462;-75
2023/06/27 05:58:29;;;;;;;7.10;2.85;;;16.30;76.70;;;;;;5021563;28;20051;-74
2023/06/27 06:00:55;;;;;;;6.25;2.40;;;16.40;76.50;;;;;;5002791;28;20054;-75
2023/06/27 06:03:23;;;;;;;6.83;2.50;;;16.40;76.20;;;;;;4999636;28;20158;-75
2023/06/27 06:05:50;;;;;;;7.78;3.00;;;16.50;76.00;;;;;;5000139;28;20046;-75
2023/06/27 06:08:17;;;;;;;7.68;2.30;;;16.50;75.80;;;;;;4999075;28;20172;-75
2023/06/27 06:10:45;;;;;;;5.45;1.88;;;16.60;75.70;;;;;;5000318;28;20080;-75
2023/06/27 06:13:13;;;;;;;6.50;2.92;;;16.70;75.10;;;;;;4999195;28;20062;-75
2023/06/27 06:15:40;;;;;;;7.37;2.33;;;16.80;74.90;;;;;;4996140;28;20597;-75
2023/06/27 06:18:07;;;;;;;7.90;2.10;;;16.80;74.70;;;;;;4990041;28;20060;-73
2023/06/27 06:20:34;;;;;;;7.78;2.50;;;16.90;74.60;;;;;;4999950;28;20130;-74
2023/06/27 06:23:01;;;;;;;4.78;1.77;;;17.00;74.10;;;;;;5004811;28;20468;-74
2023/06/27 06:25:28;;;;;;;4.93;2.00;;;17.00;73.90;;;;;;5002073;28;20047;-74
2023/06/27 06:27:55;;;;;;;6.97;1.77;;;17.00;73.60;;;;;;4998827;28;20055;-74
2023/06/27 06:30:23;;;;;;;8.05;1.95;;;17.20;73.20;;;;;;4976142;28;20523;-74
2023/06/27 06:32:50;;;;;;;5.95;1.70;;;17.20;73.30;;;;;;5009563;28;20130;-74
2023/06/27 06:35:18;;;;;;;7.15;1.92;;;17.20;72.90;;;;;;5003697;28;20134;-75
2023/06/27 06:37:45;;;;;;;5.40;1.40;;;17.40;72.50;;;;;;4979047;28;20050;-75
2023/06/27 06:40:13;;;;;;;5.73;1.23;;;17.40;72.20;;;;;;5000064;28;20432;-75
2023/06/27 06:42:40;;;;;;;4.65;1.00;;;17.50;69.60;;;;;;5007247;28;20161;-75
2023/06/27 06:45:09;;;;;;;5.10;1.33;;;17.50;69.20;;;;;;5017899;28;20425;-75
2023/06/27 06:47:37;;;;;;;4.05;1.10;;;17.60;69.00;;;;;;5017902;28;20042;-75
2023/06/27 06:50:05;;;;;;;3.97;1.00;;;17.60;68.50;;;;;;4992506;28;20045;-75
2023/06/27 06:52:32;;;;;;;5.83;0.70;;;17.80;67.20;;;;;;4999468;28;20081;-74
2023/06/27 06:54:59;;;;;;;3.55;0.85;;;17.80;67.10;;;;;;4995242;28;20675;-75
2023/06/27 06:57:25;;;;;;;6.25;0.90;;;17.90;66.60;;;;;;4997033;28;20481;-76
2023/06/27 06:59:53;;;;;;;3.65;0.70;;;18.00;64.60;;;;;;4993616;28;20057;-75
2023/06/27 07:02:19;;;;;;;4.72;0.75;;;18.10;62.50;;;;;;4991374;28;20125;-76
2023/06/27 07:04:48;;;;;;;2.80;0.40;;;18.10;61.40;;;;;;5008343;28;20925;-75
2023/06/27 07:07:15;;;;;;;4.38;0.80;;;18.20;60.60;;;;;;4996823;28;20053;-75
2023/06/27 07:09:42;;;;;;;3.05;0.65;;;18.30;60.70;;;;;;5021531;28;20149;-74
2023/06/27 07:12:09;;;;;;;4.97;0.80;;;18.30;60.30;;;;;;4998382;28;20133;-74
2023/06/27 07:14:36;;;;;;;4.50;0.77;;;18.30;59.60;;;;;;5005178;28;20085;-75
2023/06/27 07:17:03;;;;;;;4.37;0.80;;;18.40;60.00;;;;;;4995732;28;20057;-71
2023/06/27 07:19:30;;;;;;;4.45;0.80;;;18.40;60.10;;;;;;5002135;28;20126;-74
2023/06/27 07:21:58;;;;;;;3.95;0.70;;;18.50;60.00;;;;;;5000102;28;20047;-72
2023/06/27 07:24:26;;;;;;;4.22;0.75;;;18.50;59.70;;;;;;5001521;28;20054;-73
2023/06/27 07:26:53;;;;;;;4.53;1.00;;;18.60;60.10;;;;;;5006950;28;20081;-73
2023/06/27 07:29:21;;;;;;;2.53;0.50;;;18.60;60.10;;;;;;4999402;28;20067;-73
2023/06/27 07:31:48;;;;;;;2.95;0.60;;;18.70;60.40;;;;;;5001694;28;20050;-73
2023/06/27 07:34:16;;;;;;;4.82;0.70;;;18.70;59.50;;;;;;5000480;28;20062;-72
2023/06/27 07:36:43;;;;;;;4.55;0.90;;;18.80;58.90;;;;;;5001334;28;20058;-72
2023/06/27 07:39:11;;;;;;;3.92;0.90;;;18.80;58.90;;;;;;5000916;28;21480;-72
2023/06/27 07:41:38;;;;;;;2.70;0.40;;;18.80;58.00;;;;;;5004106;28;20212;-72
2023/06/27 07:44:05;;;;;;;2.88;0.50;;;18.90;57.70;;;;;;5009216;28;20054;-72
2023/06/27 07:46:32;;;;;;;5.47;0.77;;;18.90;57.20;;;;;;4995885;28;20054;-73
2023/06/27 07:48:59;;;;;;;5.43;0.70;;;18.90;57.00;;;;;;5001608;28;20116;-73
2023/06/27 07:51:27;;;;;;;2.75;0.50;;;19.00;56.70;;;;;;5002985;28;20502;-72
2023/06/27 07:53:54;;;;;;;3.03;0.60;;;19.00;55.80;;;;;;5008714;28;20543;-73
2023/06/27 07:56:23;;;;;;;4.15;0.65;;;19.10;56.30;;;;;;5008772;28;20047;-73
2023/06/27 07:58:50;;;;;;;4.30;0.70;;;19.10;56.50;;;;;;5008158;28;20058;-73
2023/06/27 08:01:17;;;;;;;4.20;0.60;;;19.10;56.20;;;;;;5009128;28;20058;-74
2023/06/27 08:03:43;;;;;;;4.25;0.80;;;19.20;55.90;;;;;;4997585;28;20516;-73
2023/06/27 08:06:10;;;;;;;6.57;0.73;;;19.20;54.90;;;;;;5009353;28;20073;-73
2023/06/27 08:08:37;;;;;;;4.40;0.77;;;19.20;54.00;;;;;;5000908;28;20051;-72
2023/06/27 08:11:05;;;;;;;5.88;0.85;;;19.20;52.40;;;;;;5001129;28;20046;-73
2023/06/27 08:13:34;;;;;;;6.47;0.80;;;19.30;52.80;;;;;;4999158;28;20054;-73
2023/06/27 08:16:01;;;;;;;3.45;0.52;;;19.30;53.40;;;;;;4996924;28;20137;-73
2023/06/27 08:18:28;;;;;;;4.07;0.77;;;19.30;53.30;;;;;;4998463;28;20054;-73
2023/06/27 08:20:55;;;;;;;3.95;0.50;;;19.30;53.80;;;;;;5001316;28;20065;-73
2023/06/27 08:23:22;;;;;;;7.13;0.77;;;19.30;53.50;;;;;;5010304;28;20050;-73
2023/06/27 08:25:49;;;;;;;4.55;0.60;;;19.30;53.40;;;;;;5005611;28;20601;-73
2023/06/27 08:28:15;;;;;;;4.43;0.70;;;19.30;53.30;;;;;;5003576;28;20061;-74
2023/06/27 08:30:44;;;;;;;3.70;0.60;;;19.30;53.80;;;;;;5007518;28;20176;-74
2023/06/27 08:33:11;;;;;;;2.95;0.40;;;19.30;52.90;;;;;;5023974;28;20544;-74
2023/06/27 08:35:37;;;;;;;2.97;0.52;;;19.40;51.80;;;;;;4998086;28;20096;-74
2023/06/27 08:38:04;;;;;;;3.83;0.47;;;19.40;52.30;;;;;;5022989;28;20058;-74
2023/06/27 08:40:35;;;;;;;3.00;0.57;;;19.40;52.70;;;;;;5001678;28;20496;-74
2023/06/27 08:43:02;;;;;;;2.10;0.60;;;19.50;52.20;;;;;;5000439;28;20599;-74
2023/06/27 08:45:29;;;;;;;2.97;0.50;;;19.50;51.70;;;;;;5010800;28;20141;-73
2023/06/27 08:47:59;;;;;;;3.40;0.55;;;19.50;51.40;;;;;;5008145;28;20053;-74
2023/06/27 08:50:28;;;;;;;3.88;0.60;;;19.60;50.70;;;;;;5005571;28;20070;-72
2023/06/27 08:52:58;;;;;;;3.42;0.50;;;19.70;51.70;;;;;;5001414;28;20086;-72
2023/06/27 08:55:35;;;;;;;5.67;0.60;;;19.70;52.10;;;;;;5001909;28;20063;-72
2023/06/27 08:58:06;;;;;;;4.38;0.63;;;19.80;51.80;;;;;;5000315;28;20055;-71
2023/06/27 09:00:34;;;;;;;4.50;0.80;;;19.80;51.20;;;;;;4999338;28;20050;-71
2023/06/27 09:03:05;;;;;;;3.97;0.63;;;19.90;51.20;;;;;;5025413;28;20556;-71
2023/06/27 09:05:33;;;;;;;6.72;0.65;;;19.90;52.10;;;;;;5012337;28;20046;-72
2023/06/27 09:08:00;;;;;;;3.67;0.70;;;19.90;52.70;;;;;;5021844;28;20043;-72
2023/06/27 09:10:28;;;;;;;3.50;0.63;;;19.90;52.60;;;;;;5005415;28;20055;-71
2023/06/27 09:12:55;;;;;;;3.65;0.57;;;20.00;53.20;;;;;;5002005;28;20046;-72
2023/06/27 09:15:22;;;;;;;3.70;0.60;;;20.00;51.30;;;;;;5001574;28;20050;-72
2023/06/27 09:17:50;;;;;;;4.43;0.70;;;20.00;50.70;;;;;;5004691;28;20054;-71
2023/06/27 09:20:19;;;;;;;4.40;0.67;;;20.00;52.00;;;;;;5001415;28;20196;-72
2023/06/27 09:22:46;;;;;;;2.95;0.40;;;20.00;52.60;;;;;;4999478;28;20073;-72
2023/06/27 09:25:15;;;;;;;2.83;0.73;;;20.00;52.10;;;;;;5001607;28;20145;-72
2023/06/27 09:27:43;;;;;;;4.88;0.60;;;20.00;51.90;;;;;;5000881;28;20109;-71
2023/06/27 09:30:11;;;;;;;4.38;0.50;;;20.00;51.20;;;;;;5000625;28;20499;-71
2023/06/27 09:32:53;;;;;;;3.47;0.60;;;20.00;51.60;;;;;;5000148;28;20043;-71
2023/06/27 09:35:23;;;;;;;2.65;0.60;;;20.00;52.70;;;;;;5003906;28;20061;-71
2023/06/27 09:37:50;;;;;;;3.38;0.65;;;20.00;53.10;;;;;;4999412;28;20579;-71
2023/06/27 09:40:19;;;;;;;3.13;0.57;;;20.00;52.50;;;;;;5007668;28;20052;-71
2023/06/27 09:42:50;;;;;;;2.00;0.50;;;20.00;52.80;;;;;;5021810;28;20519;-72
2023/06/27 09:45:17;;;;;;;1.70;0.37;;;20.00;52.40;;;;;;5000197;28;20054;-71
2023/06/27 09:47:44;;;;;;;2.55;0.50;;;20.00;52.80;;;;;;5008235;28;20089;-71
2023/06/27 09:50:11;;;;;;;3.97;0.70;;;20.00;52.80;;;;;;5001886;28;20055;-71
2023/06/27 09:52:39;;;;;;;4.80;0.75;;;20.00;52.80;;;;;;5000990;28;20620;-71
2023/06/27 09:55:18;;;;;;;4.93;0.70;;;20.00;53.20;;;;;;4987268;28;20079;-71
2023/06/27 09:57:45;;;;;;;4.90;0.63;;;20.00;53.50;;;;;;5012886;28;20053;-71
2023/06/27 10:00:13;;;;;;;5.32;0.70;;;20.00;53.00;;;;;;4994940;28;20054;-72
2023/06/27 10:02:41;;;;;;;2.67;0.80;;;20.10;52.70;;;;;;5002430;28;20049;-72
2023/06/27 10:05:09;;;;;;;3.25;0.60;;;20.10;52.80;;;;;;5004417;28;20137;-72
2023/06/27 10:07:36;;;;;;;7.13;1.10;;;20.10;52.20;;;;;;4994128;28;20061;-72
2023/06/27 10:10:07;;;;;;;5.20;0.70;;;20.10;52.90;;;;;;4995047;28;20137;-72
2023/06/27 10:12:34;;;;;;;2.58;0.50;;;20.10;53.20;;;;;;4995793;28;20528;-72
2023/06/27 10:15:02;;;;;;;2.78;0.57;;;20.10;54.10;;;;;;4994476;28;20053;-72
2023/06/27 10:17:29;;;;;;;6.07;0.77;;;20.10;53.80;;;;;;4994778;28;20050;-72
2023/06/27 10:19:57;;;;;;;5.78;0.80;;;20.20;53.90;;;;;;5000288;28;20524;-72
2023/06/27 10:22:29;;;;;;;3.47;0.77;;;20.30;53.20;;;;;;5003811;28;20059;-73
2023/06/27 10:25:00;;;;;;;5.60;1.30;;;20.30;53.70;;;;;;5001163;28;20055;-73
2023/06/27 10:27:32;;;;;;;3.35;0.35;;;20.30;53.40;;;;;;5002514;28;20402;-73
2023/06/27 10:30:03;;;;;;;3.58;0.70;;;20.30;53.00;;;;;;5009057;28;20054;-73
2023/06/27 10:32:40;;;;;;;3.90;0.65;;;20.30;53.70;;;;;;5004203;28;20062;-72
2023/06/27 10:35:11;;;;;;;4.53;0.90;;;20.30;53.40;;;;;;4999704;28;20076;-73
2023/06/27 10:37:40;;;;;;;5.75;1.08;;;20.40;53.10;;;;;;4993026;28;20501;-73
2023/06/27 10:40:09;;;;;;;3.83;0.80;;;20.30;53.60;;;;;;4996564;28;20050;-72
2023/06/27 10:42:38;;;;;;;4.28;0.90;;;20.30;53.70;;;;;;4993623;28;20043;-72
2023/06/27 10:45:09;;;;;;;2.42;0.40;;;20.30;53.60;;;;;;4997399;28;20672;-72
2023/06/27 10:47:38;;;;;;;7.20;0.90;;;20.30;53.10;;;;;;5002404;28;20038;-72
2023/06/27 10:50:10;;;;;;;4.20;0.90;;;20.30;53.30;;;;;;4997650;28;20058;-72
2023/06/27 10:52:42;;;;;;;4.55;0.85;;;20.30;53.00;;;;;;4995183;28;20573;-73
2023/06/27 10:55:27;;;;;;;3.05;0.90;;;20.30;54.20;;;;;;4992999;28;20078;-73
2023/06/27 10:58:10;;;;;;;8.02;1.02;;;20.30;53.60;;;;;;5001489;28;20057;-73
2023/06/27 11:00:42;;;;;;;3.17;0.60;;;20.30;54.10;;;;;;4994633;28;20531;-74
2023/06/27 11:03:10;;;;;;;5.07;0.77;;;20.40;52.80;;;;;;5005275;28;20052;-73
2023/06/27 11:05:44;;;;;;;4.30;0.75;;;20.50;53.40;;;;;;5020940;28;20444;-73
2023/06/27 11:08:15;;;;;;;4.22;0.70;;;20.50;53.70;;;;;;4995226;28;20070;-73
2023/06/27 11:11:01;;;;;;;3.28;0.90;;;20.50;52.90;;;;;;5006541;28;20050;-73
2023/06/27 11:13:31;;;;;;;4.60;0.80;;;20.60;52.20;;;;;;4993543;28;20134;-73
2023/06/27 11:15:58;;;;;;;3.47;0.60;;;20.60;51.80;;;;;;4987200;28;20061;-73
2023/06/27 11:18:26;;;;;;;4.25;0.75;;;20.70;51.50;;;;;;5008374;28;20756;-74
2023/06/27 11:20:53;;;;;;;4.43;0.70;;;20.70;51.20;;;;;;5014420;28;20078;-74
2023/06/27 11:23:21;;;;;;;3.55;0.60;;;20.70;51.70;;;;;;5005711;28;20129;-74
2023/06/27 11:25:49;;;;;;;3.80;0.80;;;20.70;52.20;;;;;;5012537;28;20050;-74
2023/06/27 11:28:18;;;;;;;3.08;0.70;;;20.70;52.30;;;;;;5012602;28;20083;-74
2023/06/27 11:30:47;;;;;;;3.13;0.70;;;20.70;52.30;;;;;;5006839;28;20133;-74
2023/06/27 11:33:17;;;;;;;4.07;0.60;;;20.70;51.90;;;;;;5008510;28;20050;-74
2023/06/27 11:35:44;;;;;;;4.25;0.80;;;20.70;52.30;;;;;;5015334;28;20556;-75
2023/06/27 11:38:11;;;;;;;6.97;0.73;;;20.70;52.60;;;;;;5002782;28;20559;-76
2023/06/27 11:40:47;;;;;;;4.65;0.60;;;20.70;52.20;;;;;;5002583;28;20062;-75
2023/06/27 11:43:15;;;;;;;5.82;0.80;;;20.70;52.30;;;;;;4998116;28;20042;-76
2023/06/27 11:45:46;;;;;;;5.85;1.13;;;20.60;52.30;;;;;;5002838;28;20057;-76
2023/06/27 11:48:13;;;;;;;4.75;0.82;;;20.60;53.10;;;;;;5000264;28;20371;-76
2023/06/27 11:51:04;;;;;;;4.27;0.53;;;20.60;53.80;;;;;;5001938;28;20133;-76
2023/06/27 11:53:33;;;;;;;4.93;0.80;;;20.60;54.60;;;;;;5001345;28;20165;-76
2023/06/27 11:56:00;;;;;;;2.92;0.57;;;20.60;54.10;;;;;;4998415;28;20050;-74
2023/06/27 11:58:30;;;;;;;4.70;0.60;;;20.70;52.50;;;;;;4997515;28;20508;-75
2023/06/27 12:00:59;;;;;;;4.78;0.80;;;20.80;51.40;;;;;;4997208;28;20524;-74
2023/06/27 12:03:30;;;;;;;5.53;1.17;;;20.80;51.50;;;;;;5011875;28;20055;-75
2023/06/27 12:05:58;;;;;;;3.92;0.88;;;20.80;52.10;;;;;;5000033;28;20608;-75
2023/06/27 12:08:32;;;;;;;2.95;0.70;;;20.90;51.90;;;;;;4981727;28;20583;-75
2023/06/27 12:11:02;;;;;;;4.90;0.75;;;20.90;52.70;;;;;;4995821;28;20145;-76
2023/06/27 12:13:35;;;;;;;5.43;1.00;;;21.00;52.10;;;;;;4996956;28;20054;-74
2023/06/27 12:16:04;;;;;;;2.73;0.47;;;21.00;51.40;;;;;;4996317;28;20050;-76
2023/06/27 12:18:32;;;;;;;4.95;0.90;;;21.10;50.70;;;;;;4975607;28;20050;-75
2023/06/27 12:21:00;;;;;;;4.28;0.93;;;21.10;49.40;;;;;;5003714;28;20054;-76
2023/06/27 12:23:29;;;;;;;4.22;0.70;;;21.10;49.50;;;;;;4996779;28;20203;-76
2023/06/27 12:25:56;;;;;;;3.17;0.60;;;21.00;48.80;;;;;;4997479;28;20061;-75
2023/06/27 12:28:24;;;;;;;5.47;0.60;;;21.00;46.80;;;;;;5005389;28;20500;-76
2023/06/27 12:30:51;;;;;;;3.17;0.70;;;20.90;47.10;;;;;;5000157;28;20395;-75
2023/06/27 12:33:19;;;;;;;2.92;0.45;;;21.00;48.10;;;;;;4999353;28;20054;-76
2023/06/27 12:35:46;;;;;;;3.20;0.50;;;21.00;48.90;;;;;;4998080;28;20608;-76
2023/06/27 12:38:13;;;;;;;2.75;0.50;;;21.00;47.60;;;;;;5001240;28;20130;-76
2023/06/27 12:40:40;;;;;;;3.00;0.53;;;21.00;47.80;;;;;;5004599;28;20050;-76
2023/06/27 12:43:07;;;;;;;3.03;0.60;;;21.10;49.20;;;;;;5004621;28;20058;-76
2023/06/27 12:45:34;;;;;;;2.13;0.40;;;21.10;50.00;;;;;;5005960;28;20053;-76
2023/06/27 12:48:01;;;;;;;2.75;0.50;;;21.10;50.00;;;;;;5007536;28;20054;-76
2023/06/27 12:50:29;;;;;;;3.88;0.65;;;21.10;50.00;;;;;;5013088;28;20046;-75